Airfield :
LOGIN :

Register | Disclaimer

   EN    FR    IT 

 










Legend :    VFR   Marginal VFR   IFR   Intensive IFR   Very Intensive IFR
Visi :
Ceiling :
>= 8 km
>= 3000ft
5 to 8 km
1000 to 3000 ft
1500m to 5 km
500 to 1000 ft
800 to 1500m
200 to 500 ft
< 800m
< 200 ft
Symbols :   Thunderstorms  Fog  Heavy snow  Heavy precipitations  Wind > 20 kt
SIGMETs :     Misc.  Thunderstorms  Icing  Turbulence  Mountain Waves  Volcanic Ashes






- Airport Elevation : 297 ft
- IATA code : UIP


LFRQ - Quimper Pluguffan

CURRENT METAR :
  • 092300Z AUTO 23003KT 9999 BKN030 04/04 Q1029

EXPIRED METARs :
  • 092230Z AUTO 25004KT CAVOK 04/04 Q1029
  • 092200Z AUTO 00000KT 8000 NSC 04/04 Q1029 BECMG 22010KT
  • 092130Z AUTO 24004KT 8000 NSC 04/03 Q1029 NOSIG
  • 092100Z AUTO 26002KT 9000 NSC 05/04 Q1028 NOSIG
  • 092030Z AUTO 28003KT 9999 FEW029 05/04 Q1028 BECMG 22010KT
  • 092000Z AUTO 29005KT 9999 OVC032 05/04 Q1029 BECMG 22010KT

TAF TAF LFRQ
Valid from the 09 at 18:00 until the 10 at 18:00 UTC


091700Z 0918/1018 30005KT 9999 SCT020
BECMG 0921/0923 22010KT
BECMG 1005/1007 22015G25KT
TEMPO 1010/1018 24015G35KT 4000 RADZ OVC006



MET'MAP, your aeronautical weather chart ! - Copyright ORBIFLY December 2007 - Disclaimer

ORBIFLY MET'MAP TEAM :

Programming & Development : Alexandra Zaïnal
Concept & original design : Baudouin d'Aumeries
Assistance for programming : Marc-Olivier Méhu
Technical & hardware support : Manuel Goepfert

Contact : metmap@orbifly.com




SOURCES & CREDITS :

   NOAA